Time;durP1;ratioP1;P1;durP2;ratioP2;P2;SDS_P1;SDS_P2;PMS_P1;PMS_P2;Temp;Humidity;BMP_temperature;BMP_pressure;BME280_temperature;BME280_humidity;BME280_pressure;Samples;Min_cycle;Max_cycle;Signal;HPM_P1;HPM_P2
2022/07/20 00:00:37;;;;;;;;;;;24.80;62.90;;;;;;5039931;28;19928;-83
2022/07/20 00:03:07;;;;;;;;;;;24.80;62.70;;;;;;5040854;28;19938;-83
2022/07/20 00:05:33;;;;;;;;;;;24.80;63.30;;;;;;5045006;28;19928;-83
2022/07/20 00:07:59;;;;;;;;;;;24.70;63.50;;;;;;5037954;28;20455;-83
2022/07/20 00:13:09;;;;;;;;;;;24.50;63.40;;;;;;5043628;28;20660;-83
2022/07/20 00:15:34;;;;;;;;;;;24.50;63.60;;;;;;5028315;28;19936;-83
2022/07/20 00:18:00;;;;;;;;;;;24.40;63.80;;;;;;5044118;28;19971;-83
2022/07/20 00:20:26;;;;;;;;;;;24.50;63.20;;;;;;5047776;28;19974;-84
2022/07/20 00:22:52;;;;;;;;;;;24.50;64.00;;;;;;5045159;28;20762;-83
2022/07/20 00:25:18;;;;;;;;;;;24.30;64.00;;;;;;5044158;28;19928;-83
2022/07/20 00:27:44;;;;;;;;;;;24.40;63.80;;;;;;5049285;28;19935;-82
2022/07/20 00:30:10;;;;;;;;;;;24.40;63.60;;;;;;5049776;28;20563;-83
2022/07/20 00:32:37;;;;;;;;;;;24.40;63.90;;;;;;5052433;28;19972;-83
2022/07/20 00:35:07;;;;;;;;;;;24.30;63.70;;;;;;5045889;28;20006;-83
2022/07/20 00:37:33;;;;;;;;;;;24.20;64.70;;;;;;5051090;28;19928;-82
2022/07/20 00:39:58;;;;;;;;;;;24.40;64.10;;;;;;5049568;28;20470;-84
2022/07/20 00:42:24;;;;;;;;;;;24.10;64.80;;;;;;5033928;28;19929;-83
2022/07/20 00:44:50;;;;;;;;;;;24.10;65.00;;;;;;5053377;28;19928;-83
2022/07/20 00:47:16;;;;;;;;;;;23.90;65.60;;;;;;5054655;28;19931;-83
2022/07/20 00:49:41;;;;;;;;;;;23.90;65.50;;;;;;5052059;28;20400;-83
2022/07/20 00:52:07;;;;;;;;;;;23.70;66.60;;;;;;5051911;28;20799;-83
2022/07/20 00:54:33;;;;;;;;;;;23.70;66.90;;;;;;5052815;28;19928;-85
2022/07/20 00:56:59;;;;;;;;;;;23.60;66.40;;;;;;5052816;28;19928;-82
2022/07/20 00:59:24;;;;;;;;;;;23.60;66.40;;;;;;5053295;28;20400;-83
2022/07/20 01:01:50;;;;;;;;;;;23.70;66.80;;;;;;5051500;28;20945;-81
2022/07/20 01:04:16;;;;;;;;;;;23.60;67.10;;;;;;5058380;28;19977;-82
2022/07/20 01:06:42;;;;;;;;;;;23.50;67.30;;;;;;5022261;28;19951;-83
2022/07/20 01:09:08;;;;;;;;;;;23.40;68.10;;;;;;5054524;28;20022;-83
2022/07/20 01:11:34;;;;;;;;;;;23.40;67.10;;;;;;5050396;28;20472;-81
2022/07/20 01:14:00;;;;;;;;;;;23.40;67.60;;;;;;5053140;28;19928;-82
2022/07/20 01:16:26;;;;;;;;;;;23.50;67.60;;;;;;5074249;27;20699;-82
2022/07/20 01:18:51;;;;;;;;;;;23.40;68.10;;;;;;5051197;28;19928;-82
2022/07/20 01:21:17;;;;;;;;;;;23.40;67.70;;;;;;5052873;28;19932;-82
2022/07/20 01:23:43;;;;;;;;;;;23.30;68.70;;;;;;5051263;28;20317;-83
2022/07/20 01:26:09;;;;;;;;;;;23.20;68.60;;;;;;5049361;28;19943;-82
2022/07/20 01:28:34;;;;;;;;;;;23.30;68.40;;;;;;5052467;28;20475;-82
2022/07/20 01:31:00;;;;;;;;;;;23.30;68.10;;;;;;5051052;28;20023;-82
2022/07/20 01:33:26;;;;;;;;;;;23.30;67.90;;;;;;5053821;28;20321;-82
2022/07/20 01:35:52;;;;;;;;;;;23.30;68.10;;;;;;5052663;28;20317;-82
2022/07/20 01:38:17;;;;;;;;;;;23.30;68.40;;;;;;5048667;28;20828;-83
2022/07/20 01:40:43;;;;;;;;;;;23.20;68.90;;;;;;5049902;28;19928;-84
2022/07/20 01:43:09;;;;;;;;;;;23.20;68.30;;;;;;5049822;28;19932;-83
2022/07/20 01:45:34;;;;;;;;;;;23.10;68.60;;;;;;5023443;28;19928;-82
2022/07/20 01:48:00;;;;;;;;;;;23.00;69.10;;;;;;5046958;28;19989;-83
2022/07/20 01:50:26;;;;;;;;;;;22.90;69.50;;;;;;5049473;28;20036;-82
2022/07/20 01:52:51;;;;;;;;;;;23.00;69.30;;;;;;5045212;28;19958;-82
2022/07/20 01:55:17;;;;;;;;;;;22.90;70.10;;;;;;5030442;28;19975;-83
2022/07/20 01:57:43;;;;;;;;;;;23.00;69.00;;;;;;5040310;28;19955;-82
2022/07/20 02:00:09;;;;;;;;;;;23.00;69.40;;;;;;5050137;28;20440;-84
2022/07/20 02:02:35;;;;;;;;;;;22.90;69.40;;;;;;5046368;28;20026;-82
2022/07/20 02:05:00;;;;;;;;;;;22.90;69.40;;;;;;5048505;28;19930;-82
2022/07/20 02:07:26;;;;;;;;;;;22.80;70.20;;;;;;5027072;28;19936;-83
2022/07/20 02:09:52;;;;;;;;;;;22.80;70.80;;;;;;5046644;28;20558;-83
2022/07/20 02:12:19;;;;;;;;;;;22.70;70.70;;;;;;5047986;28;19985;-82
2022/07/20 02:14:45;;;;;;;;;;;22.80;70.00;;;;;;5049602;28;19932;-83
2022/07/20 02:17:10;;;;;;;;;;;22.60;71.00;;;;;;5048633;28;19939;-83
2022/07/20 02:19:36;;;;;;;;;;;22.60;71.10;;;;;;5047554;28;19983;-83
2022/07/20 02:22:02;;;;;;;;;;;22.60;71.20;;;;;;5027717;28;19932;-83
2022/07/20 02:24:28;;;;;;;;;;;22.70;70.90;;;;;;5046254;28;19928;-83
2022/07/20 02:26:53;;;;;;;;;;;22.50;71.80;;;;;;5047958;28;19928;-82
2022/07/20 02:29:19;;;;;;;;;;;22.60;71.60;;;;;;5050479;28;19973;-83
2022/07/20 02:31:44;;;;;;;;;;;22.80;71.20;;;;;;5030223;28;19928;-83
2022/07/20 02:34:10;;;;;;;;;;;22.60;71.30;;;;;;5049588;28;20047;-84
2022/07/20 02:36:36;;;;;;;;;;;22.60;71.30;;;;;;5046932;28;20098;-82
2022/07/20 02:39:02;;;;;;;;;;;22.70;71.10;;;;;;5049690;28;19958;-83
2022/07/20 02:41:27;;;;;;;;;;;22.60;71.30;;;;;;5053983;28;19928;-82
2022/07/20 02:43:53;;;;;;;;;;;22.50;71.70;;;;;;5045137;28;20036;-83
2022/07/20 02:46:19;;;;;;;;;;;22.60;71.50;;;;;;5050719;28;19989;-83
2022/07/20 02:48:44;;;;;;;;;;;22.40;72.30;;;;;;5049238;28;20071;-83
2022/07/20 02:51:10;;;;;;;;;;;22.20;73.40;;;;;;5044431;28;19939;-82
2022/07/20 02:53:36;;;;;;;;;;;22.20;73.90;;;;;;5047915;28;19981;-83
2022/07/20 02:56:02;;;;;;;;;;;22.10;74.10;;;;;;5047429;28;19979;-83
2022/07/20 02:58:27;;;;;;;;;;;22.00;75.10;;;;;;5049684;28;19928;-82
2022/07/20 03:00:53;;;;;;;;;;;21.90;76.00;;;;;;5047996;28;19928;-84
2022/07/20 03:03:19;;;;;;;;;;;22.00;75.80;;;;;;5049290;28;19935;-83
2022/07/20 03:05:45;;;;;;;;;;;21.90;76.50;;;;;;5046180;28;20476;-83
2022/07/20 03:08:13;;;;;;;;;;;21.90;76.40;;;;;;5029671;28;20010;-83
2022/07/20 03:10:40;;;;;;;;;;;21.70;76.90;;;;;;5045064;28;20504;-83
2022/07/20 03:13:05;;;;;;;;;;;21.70;77.60;;;;;;5043916;28;19939;-83
2022/07/20 03:15:31;;;;;;;;;;;21.70;78.10;;;;;;5058758;28;19931;-83
2022/07/20 03:17:58;;;;;;;;;;;21.70;78.30;;;;;;5064319;28;19970;-82
2022/07/20 03:20:34;;;;;;;;;;;21.60;79.80;;;;;;5062413;28;20015;-82
2022/07/20 03:23:00;;;;;;;;;;;21.70;79.10;;;;;;5064540;28;19928;-81
2022/07/20 03:25:26;;;;;;;;;;;21.60;80.40;;;;;;5062847;28;19939;-82
2022/07/20 03:27:53;;;;;;;;;;;21.60;80.00;;;;;;5062651;28;19932;-82
2022/07/20 03:30:19;;;;;;;;;;;21.70;80.00;;;;;;5065074;28;19928;-83
2022/07/20 03:32:45;;;;;;;;;;;21.70;80.80;;;;;;5065690;28;19928;-82
2022/07/20 03:35:11;;;;;;;;;;;21.60;81.20;;;;;;5064272;28;20410;-82
2022/07/20 03:37:36;;;;;;;;;;;21.70;81.30;;;;;;5062425;28;19962;-82
2022/07/20 03:40:04;;;;;;;;;;;21.50;81.70;;;;;;5063043;28;20946;-82
2022/07/20 03:42:30;;;;;;;;;;;21.50;81.60;;;;;;5062483;28;20285;-82
2022/07/20 03:44:56;;;;;;;;;;;21.50;82.30;;;;;;5063843;28;20629;-84
2022/07/20 03:47:22;;;;;;;;;;;21.50;83.00;;;;;;5064327;28;19996;-82
2022/07/20 03:49:47;;;;;;;;;;;21.30;83.40;;;;;;5065170;28;19935;-83
2022/07/20 03:52:13;;;;;;;;;;;21.40;85.10;;;;;;5064403;28;20447;-85
2022/07/20 03:54:39;;;;;;;;;;;21.20;85.60;;;;;;5064018;28;19954;-82
2022/07/20 03:57:05;;;;;;;;;;;21.30;85.80;;;;;;5064080;28;20778;-81
2022/07/20 03:59:32;;;;;;;;;;;21.10;87.50;;;;;;5061256;28;19971;-84
2022/07/20 04:01:57;;;;;;;;;;;21.00;88.70;;;;;;5047959;28;19935;-83
2022/07/20 04:04:23;;;;;;;;;;;21.00;89.10;;;;;;5060212;28;19928;-83
2022/07/20 04:06:49;;;;;;;;;;;21.20;88.40;;;;;;5044899;28;19935;-83
2022/07/20 04:09:14;;;;;;;;;;;21.30;88.50;;;;;;5060070;28;19928;-82
2022/07/20 04:11:40;;;;;;;;;;;21.20;88.90;;;;;;5056560;28;19962;-82
2022/07/20 04:14:06;;;;;;;;;;;21.30;89.40;;;;;;5054864;28;19932;-82
2022/07/20 04:16:31;;;;;;;;;;;21.30;88.50;;;;;;5053058;28;20440;-83
2022/07/20 04:18:57;;;;;;;;;;;21.50;86.40;;;;;;5052371;28;19938;-82
2022/07/20 04:21:23;;;;;;;;;;;21.50;86.60;;;;;;5061606;28;19934;-83
2022/07/20 04:23:48;;;;;;;;;;;21.50;86.60;;;;;;5055773;28;20047;-83
2022/07/20 04:26:14;;;;;;;;;;;21.50;88.30;;;;;;5061534;28;19932;-82
2022/07/20 04:28:39;;;;;;;;;;;21.60;88.10;;;;;;5061636;28;20312;-83
2022/07/20 04:31:05;;;;;;;;;;;21.60;87.00;;;;;;5061936;28;19979;-83
2022/07/20 04:33:31;;;;;;;;;;;21.60;86.80;;;;;;5064117;28;19928;-83
2022/07/20 04:35:57;;;;;;;;;;;21.50;88.90;;;;;;5062725;28;20401;-82
2022/07/20 04:38:23;;;;;;;;;;;21.40;90.40;;;;;;5062901;28;19929;-84
2022/07/20 04:40:48;;;;;;;;;;;21.50;90.20;;;;;;5063250;28;19939;-82
2022/07/20 04:43:14;;;;;;;;;;;21.40;91.00;;;;;;5061277;28;19958;-83
2022/07/20 04:45:39;;;;;;;;;;;21.50;90.40;;;;;;5063588;28;20019;-83
2022/07/20 04:48:05;;;;;;;;;;;21.40;91.80;;;;;;5060851;28;19985;-83
2022/07/20 04:50:31;;;;;;;;;;;21.40;92.00;;;;;;5060998;28;19967;-84
2022/07/20 04:52:57;;;;;;;;;;;21.50;91.40;;;;;;5042238;28;19963;-84
2022/07/20 04:55:22;;;;;;;;;;;22.10;92.60;;;;;;5061784;28;20685;-84
2022/07/20 04:57:48;;;;;;;;;;;24.10;90.40;;;;;;5041788;28;19988;-83
2022/07/20 05:00:14;;;;;;;;;;;25.60;85.00;;;;;;5058952;28;19935;-84
2022/07/20 05:02:39;;;;;;;;;;;26.40;80.70;;;;;;5044036;28;19935;-83
2022/07/20 05:05:05;;;;;;;;;;;26.90;78.00;;;;;;5062597;28;19924;-83
2022/07/20 05:07:31;;;;;;;;;;;28.00;76.20;;;;;;5060925;28;19928;-83
2022/07/20 05:09:57;;;;;;;;;;;27.30;72.90;;;;;;5059650;28;19939;-84
2022/07/20 05:12:22;;;;;;;;;;;27.60;73.20;;;;;;5054426;28;19928;-85
2022/07/20 05:14:48;;;;;;;;;;;28.30;72.20;;;;;;5058930;28;19962;-84
2022/07/20 05:17:14;;;;;;;;;;;28.40;72.20;;;;;;5060808;28;19928;-84
2022/07/20 05:19:39;;;;;;;;;;;28.70;71.20;;;;;;5061572;28;19928;-85
2022/07/20 05:22:05;;;;;;;;;;;28.50;70.30;;;;;;5059460;28;20104;-85
2022/07/20 05:24:31;;;;;;;;;;;28.50;71.20;;;;;;5061960;28;19928;-84
2022/07/20 05:26:56;;;;;;;;;;;28.80;69.20;;;;;;5059804;28;20437;-83
2022/07/20 05:29:22;;;;;;;;;;;29.70;68.40;;;;;;5063268;28;19989;-83
2022/07/20 05:31:48;;;;;;;;;;;29.60;68.70;;;;;;5062996;28;19939;-84
2022/07/20 05:34:13;;;;;;;;;;;30.40;68.70;;;;;;5063584;28;19932;-84
2022/07/20 05:36:39;;;;;;;;;;;31.10;67.60;;;;;;5062790;28;19931;-85
2022/07/20 05:39:05;;;;;;;;;;;32.30;67.50;;;;;;5063571;28;19928;-84
2022/07/20 05:41:30;;;;;;;;;;;32.00;67.00;;;;;;5041334;28;20039;-86
2022/07/20 05:43:56;;;;;;;;;;;32.60;65.60;;;;;;5046726;28;20038;-85
2022/07/20 05:46:21;;;;;;;;;;;32.70;64.30;;;;;;5064942;28;19928;-86
2022/07/20 05:48:47;;;;;;;;;;;32.60;66.10;;;;;;5064319;28;19932;-84
2022/07/20 05:51:13;;;;;;;;;;;33.00;66.00;;;;;;5063953;28;19927;-84
2022/07/20 05:53:38;;;;;;;;;;;32.50;65.80;;;;;;5065500;28;19981;-84
2022/07/20 05:56:04;;;;;;;;;;;30.70;64.80;;;;;;5064177;28;20296;-84
2022/07/20 05:58:30;;;;;;;;;;;30.00;67.20;;;;;;5065463;28;19928;-82
2022/07/20 06:00:56;;;;;;;;;;;29.50;68.60;;;;;;5043483;28;19932;-83
2022/07/20 06:03:21;;;;;;;;;;;29.10;69.00;;;;;;5066322;28;20250;-85
2022/07/20 06:05:47;;;;;;;;;;;28.80;68.30;;;;;;5063886;28;19981;-85
2022/07/20 06:08:13;;;;;;;;;;;28.80;70.10;;;;;;5066261;28;19973;-85
2022/07/20 06:10:39;;;;;;;;;;;29.10;71.50;;;;;;5065953;28;20367;-86
2022/07/20 06:13:05;;;;;;;;;;;29.50;70.90;;;;;;5063900;28;20003;-85
2022/07/20 06:15:30;;;;;;;;;;;30.00;69.40;;;;;;5065462;28;20935;-85
2022/07/20 06:17:56;;;;;;;;;;;29.40;70.90;;;;;;5064943;28;19934;-84
2022/07/20 06:20:23;;;;;;;;;;;29.20;70.70;;;;;;5064362;28;20087;-84
2022/07/20 06:22:49;;;;;;;;;;;29.90;71.40;;;;;;5064927;28;19928;-84
2022/07/20 06:25:15;;;;;;;;;;;29.20;70.30;;;;;;5064638;28;19975;-86
2022/07/20 06:27:41;;;;;;;;;;;29.80;71.90;;;;;;5046776;28;19979;-85
2022/07/20 06:30:07;;;;;;;;;;;29.90;71.50;;;;;;5066141;28;19928;-86
2022/07/20 06:32:33;;;;;;;;;;;30.00;71.40;;;;;;5047635;28;19928;-86
2022/07/20 06:34:59;;;;;;;;;;;30.10;70.00;;;;;;5064979;28;21151;-85
2022/07/20 06:37:25;;;;;;;;;;;29.90;71.30;;;;;;5042175;28;21090;-85
2022/07/20 06:39:51;;;;;;;;;;;30.00;71.40;;;;;;5061084;28;20014;-84
2022/07/20 06:42:17;;;;;;;;;;;30.60;71.90;;;;;;5061792;28;20077;-85
2022/07/20 06:44:43;;;;;;;;;;;31.00;70.80;;;;;;5065622;28;19998;-84
2022/07/20 06:47:09;;;;;;;;;;;30.50;68.10;;;;;;5066116;28;19932;-86
2022/07/20 06:49:35;;;;;;;;;;;30.10;67.20;;;;;;5065356;28;20707;-84
2022/07/20 06:52:01;;;;;;;;;;;29.90;65.70;;;;;;5065593;28;19986;-86
2022/07/20 06:54:27;;;;;;;;;;;30.00;67.10;;;;;;5065324;28;20377;-86
2022/07/20 06:56:52;;;;;;;;;;;30.00;65.00;;;;;;5064202;28;19981;-83
2022/07/20 06:59:18;;;;;;;;;;;29.90;65.60;;;;;;5066066;28;19935;-81
2022/07/20 07:01:44;;;;;;;;;;;30.00;66.80;;;;;;5066186;28;19934;-85
2022/07/20 07:04:09;;;;;;;;;;;30.10;67.00;;;;;;5048984;28;19983;-84
2022/07/20 07:06:35;;;;;;;;;;;30.30;67.00;;;;;;5065165;28;20015;-85
2022/07/20 07:09:01;;;;;;;;;;;30.00;65.30;;;;;;5046083;28;19973;-84
2022/07/20 07:11:26;;;;;;;;;;;30.20;66.10;;;;;;5065054;28;20015;-83
2022/07/20 07:13:52;;;;;;;;;;;30.10;65.80;;;;;;5063254;28;20253;-82
2022/07/20 07:16:18;;;;;;;;;;;30.10;65.70;;;;;;5047737;28;20024;-85
2022/07/20 07:18:43;;;;;;;;;;;30.00;65.70;;;;;;5064564;28;19978;-82
2022/07/20 07:21:09;;;;;;;;;;;30.20;67.40;;;;;;5064570;28;19974;-85
2022/07/20 07:23:35;;;;;;;;;;;30.20;66.50;;;;;;5066084;28;19932;-83
2022/07/20 07:26:01;;;;;;;;;;;30.20;66.20;;;;;;5064506;28;20016;-82
2022/07/20 07:28:27;;;;;;;;;;;30.50;67.00;;;;;;5063295;28;19939;-83
2022/07/20 07:30:52;;;;;;;;;;;30.30;66.60;;;;;;5067025;28;19928;-81
2022/07/20 07:33:25;;;;;;;;;;;30.40;65.90;;;;;;5062489;28;19928;-81
2022/07/20 07:35:54;;;;;;;;;;;30.40;65.20;;;;;;5047434;28;19982;-82
2022/07/20 07:38:20;;;;;;;;;;;30.40;66.80;;;;;;5058864;28;19928;-84
2022/07/20 07:40:46;;;;;;;;;;;30.60;67.40;;;;;;5059971;28;19950;-82
2022/07/20 07:43:11;;;;;;;;;;;30.70;67.00;;;;;;5064635;28;19932;-84
2022/07/20 07:45:37;;;;;;;;;;;30.80;68.30;;;;;;5063532;28;20009;-82
2022/07/20 07:48:05;;;;;;;;;;;30.90;68.90;;;;;;5062276;28;19959;-83
2022/07/20 07:50:31;;;;;;;;;;;30.70;68.50;;;;;;5065979;28;20972;-83
2022/07/20 07:52:57;;;;;;;;;;;30.90;70.30;;;;;;5063520;28;20392;-82
2022/07/20 07:55:22;;;;;;;;;;;30.80;69.70;;;;;;5047532;28;20031;-83
2022/07/20 07:57:48;;;;;;;;;;;30.70;69.30;;;;;;5065606;28;21832;-82
2022/07/20 08:00:14;;;;;;;;;;;30.80;71.20;;;;;;5063166;28;20377;-84
2022/07/20 08:02:40;;;;;;;;;;;30.80;72.00;;;;;;5058937;28;20385;-84
2022/07/20 08:05:06;;;;;;;;;;;30.80;71.00;;;;;;5054775;28;19933;-83
2022/07/20 08:07:33;;;;;;;;;;;30.80;72.00;;;;;;5058243;28;20054;-81
2022/07/20 08:10:00;;;;;;;;;;;30.90;71.70;;;;;;5053820;28;19931;-82
2022/07/20 08:12:25;;;;;;;;;;;30.90;73.60;;;;;;5036296;28;19928;-83
2022/07/20 08:14:51;;;;;;;;;;;31.10;74.00;;;;;;5061817;28;19974;-84
2022/07/20 08:17:19;;;;;;;;;;;31.00;75.20;;;;;;5063719;28;19936;-84
2022/07/20 08:19:44;;;;;;;;;;;30.80;75.80;;;;;;5063995;28;20327;-81
2022/07/20 08:22:10;;;;;;;;;;;30.50;76.70;;;;;;5061863;28;19970;-82
2022/07/20 08:24:39;;;;;;;;;;;30.80;78.20;;;;;;5064474;28;19967;-83
2022/07/20 08:27:04;;;;;;;;;;;30.70;78.70;;;;;;5062489;28;19932;-81
2022/07/20 08:29:30;;;;;;;;;;;30.50;79.20;;;;;;5066435;28;19981;-80
2022/07/20 08:31:55;;;;;;;;;;;30.30;79.80;;;;;;5063611;28;19936;-85
2022/07/20 08:34:21;;;;;;;;;;;30.50;81.00;;;;;;5064701;28;19927;-80
2022/07/20 08:36:47;;;;;;;;;;;30.60;81.60;;;;;;5063679;28;19928;-82
2022/07/20 08:39:13;;;;;;;;;;;30.70;82.70;;;;;;5063745;28;19928;-81
2022/07/20 08:41:40;;;;;;;;;;;30.90;82.10;;;;;;5061850;28;20050;-81
2022/07/20 08:44:06;;;;;;;;;;;30.90;82.30;;;;;;5061721;28;19939;-81
2022/07/20 08:46:33;;;;;;;;;;;30.80;83.40;;;;;;5063392;28;19928;-81
2022/07/20 08:48:59;;;;;;;;;;;30.70;83.70;;;;;;5079861;28;19978;-81
2022/07/20 08:51:24;;;;;;;;;;;30.90;84.60;;;;;;5063053;28;20007;-83
2022/07/20 08:53:50;;;;;;;;;;;31.00;83.70;;;;;;5064850;28;19966;-82
2022/07/20 08:56:16;;;;;;;;;;;31.20;85.90;;;;;;5060960;28;20394;-83
2022/07/20 08:58:42;;;;;;;;;;;31.30;85.00;;;;;;5042730;28;20778;-80
2022/07/20 09:01:12;;;;;;;;;;;31.30;85.50;;;;;;5060842;28;19940;-80
2022/07/20 09:03:41;;;;;;;;;;;31.30;82.90;;;;;;5046279;28;19943;-81
2022/07/20 09:06:07;;;;;;;;;;;31.20;82.90;;;;;;5063182;28;20456;-82
2022/07/20 09:08:33;;;;;;;;;;;31.10;81.70;;;;;;5064891;28;19927;-85
2022/07/20 09:11:00;;;;;;;;;;;31.10;83.30;;;;;;5044445;28;19939;-83
2022/07/20 09:13:30;;;;;;;;;;;31.00;82.00;;;;;;5067969;28;19932;-82
2022/07/20 09:15:56;;;;;;;;;;;30.80;82.30;;;;;;5064396;28;19928;-83
2022/07/20 09:18:25;;;;;;;;;;;31.00;84.10;;;;;;5063619;28;19970;-83
2022/07/20 09:20:52;;;;;;;;;;;30.90;82.30;;;;;;5064599;28;19928;-83
2022/07/20 09:23:19;;;;;;;;;;;30.90;82.30;;;;;;5064970;28;19928;-82
2022/07/20 09:26:05;;;;;;;;;;;30.70;82.10;;;;;;5057114;28;19966;-82
2022/07/20 09:28:47;;;;;;;;;;;30.60;81.90;;;;;;5053192;28;19950;-82
2022/07/20 09:31:20;;;;;;;;;;;30.60;83.80;;;;;;5066328;28;20102;-82
2022/07/20 09:33:48;;;;;;;;;;;30.70;83.90;;;;;;5065518;28;19970;-84
2022/07/20 09:36:15;;;;;;;;;;;30.90;84.00;;;;;;5038375;28;19971;-84
2022/07/20 09:38:41;;;;;;;;;;;31.20;84.00;;;;;;5065096;28;20388;-81
2022/07/20 09:41:25;;;;;;;;;;;31.10;83.00;;;;;;5065266;28;20436;-83
2022/07/20 09:43:51;;;;;;;;;;;31.40;83.30;;;;;;5066634;28;20027;-84
2022/07/20 09:46:21;;;;;;;;;;;31.40;83.20;;;;;;5066591;28;19928;-82
2022/07/20 09:48:51;;;;;;;;;;;31.60;83.00;;;;;;5065891;28;20456;-81
2022/07/20 09:51:17;;;;;;;;;;;31.40;81.40;;;;;;5064396;28;19967;-81
2022/07/20 09:53:42;;;;;;;;;;;31.50;82.60;;;;;;5066453;28;20011;-85
2022/07/20 09:56:09;;;;;;;;;;;31.20;82.00;;;;;;5065383;28;20024;-83
2022/07/20 09:58:34;;;;;;;;;;;31.30;81.80;;;;;;5065719;28;20108;-82
2022/07/20 10:01:00;;;;;;;;;;;31.40;82.10;;;;;;5069055;28;20459;-82
2022/07/20 10:03:27;;;;;;;;;;;31.30;82.90;;;;;;5064863;28;20397;-84
2022/07/20 10:05:54;;;;;;;;;;;31.90;84.60;;;;;;5067415;28;19924;-82
2022/07/20 10:08:19;;;;;;;;;;;32.00;83.20;;;;;;5065753;28;19928;-83
2022/07/20 10:10:45;;;;;;;;;;;32.00;81.20;;;;;;5058410;28;19977;-85
2022/07/20 10:13:11;;;;;;;;;;;31.90;80.20;;;;;;5065099;28;19928;-84
2022/07/20 10:15:49;;;;;;;;;;;31.90;79.30;;;;;;5069606;28;19975;-84
2022/07/20 10:18:14;;;;;;;;;;;32.00;80.00;;;;;;5061467;28;20006;-82
2022/07/20 10:20:40;;;;;;;;;;;32.10;78.30;;;;;;5065036;28;19939;-83
2022/07/20 10:23:15;;;;;;;;;;;32.00;77.50;;;;;;5066551;28;19936;-82
2022/07/20 10:25:41;;;;;;;;;;;32.00;75.90;;;;;;5063088;28;20004;-84
2022/07/20 10:28:26;;;;;;;;;;;31.80;74.60;;;;;;5060873;28;19932;-82
2022/07/20 10:30:53;;;;;;;;;;;31.50;72.90;;;;;;5064263;28;19928;-83
2022/07/20 10:33:19;;;;;;;;;;;31.60;74.20;;;;;;5062130;28;19982;-86
2022/07/20 10:35:47;;;;;;;;;;;31.50;75.10;;;;;;5061965;28;20023;-82
2022/07/20 10:38:14;;;;;;;;;;;31.50;75.50;;;;;;5060480;28;20654;-82
2022/07/20 10:41:31;;;;;;;;;;;31.50;74.60;;;;;;5060293;28;19950;-84
2022/07/20 10:44:05;;;;;;;;;;;31.60;75.60;;;;;;5053177;28;20163;-83
2022/07/20 10:46:33;;;;;;;;;;;31.50;76.30;;;;;;5051343;28;19928;-84
2022/07/20 10:48:58;;;;;;;;;;;31.50;74.80;;;;;;5021188;28;19928;-83
2022/07/20 10:51:24;;;;;;;;;;;31.60;74.90;;;;;;5034377;28;19927;-82
2022/07/20 10:53:50;;;;;;;;;;;31.70;75.90;;;;;;5037154;28;19928;-81
2022/07/20 10:56:27;;;;;;;;;;;32.00;75.80;;;;;;5036371;28;20751;-83
2022/07/20 10:58:58;;;;;;;;;;;32.00;75.50;;;;;;5047482;28;19928;-83
2022/07/20 11:01:23;;;;;;;;;;;32.40;77.10;;;;;;5050535;28;20621;-82
2022/07/20 11:03:49;;;;;;;;;;;32.40;74.90;;;;;;5036010;28;20043;-83
2022/07/20 11:06:19;;;;;;;;;;;32.50;74.80;;;;;;5042664;28;19969;-83
2022/07/20 11:08:52;;;;;;;;;;;32.60;74.90;;;;;;5041028;28;19939;-84
2022/07/20 11:11:22;;;;;;;;;;;32.60;75.80;;;;;;5044575;28;19928;-83
2022/07/20 11:13:48;;;;;;;;;;;32.70;76.40;;;;;;5041557;28;19928;-80
2022/07/20 11:16:17;;;;;;;;;;;32.80;74.10;;;;;;5024263;28;19928;-82
2022/07/20 11:18:43;;;;;;;;;;;32.60;74.00;;;;;;5039174;28;19959;-82
2022/07/20 11:21:09;;;;;;;;;;;32.90;75.20;;;;;;5043205;28;20824;-81
2022/07/20 11:23:38;;;;;;;;;;;32.70;74.40;;;;;;5042553;28;19928;-82
2022/07/20 11:26:03;;;;;;;;;;;32.90;75.90;;;;;;5046630;28;19928;-81
2022/07/20 11:28:31;;;;;;;;;;;32.80;75.30;;;;;;5043245;28;19928;-83
2022/07/20 11:30:57;;;;;;;;;;;32.70;75.50;;;;;;5054450;28;20095;-82
2022/07/20 11:33:28;;;;;;;;;;;32.60;76.20;;;;;;5047556;28;20576;-81
2022/07/20 11:35:55;;;;;;;;;;;32.80;76.50;;;;;;5051627;28;19932;-82
2022/07/20 11:38:21;;;;;;;;;;;32.70;73.80;;;;;;5031350;28;20436;-82
2022/07/20 11:40:57;;;;;;;;;;;32.40;73.70;;;;;;5055497;28;20030;-80
2022/07/20 11:43:23;;;;;;;;;;;32.50;72.00;;;;;;5058138;28;19932;-81
2022/07/20 11:45:49;;;;;;;;;;;32.60;73.30;;;;;;5052862;28;19931;-81
2022/07/20 11:48:16;;;;;;;;;;;32.30;73.10;;;;;;5041543;28;19928;-84
2022/07/20 11:50:42;;;;;;;;;;;32.00;73.80;;;;;;5064720;28;19939;-81
2022/07/20 11:53:21;;;;;;;;;;;32.20;72.80;;;;;;5056944;28;19927;-81
2022/07/20 11:55:46;;;;;;;;;;;32.30;71.60;;;;;;5043930;28;19939;-81
2022/07/20 11:58:12;;;;;;;;;;;32.30;72.30;;;;;;5063826;28;19928;-82
2022/07/20 12:00:38;;;;;;;;;;;32.10;73.00;;;;;;5040245;28;19974;-82
2022/07/20 12:03:03;;;;;;;;;;;32.00;71.70;;;;;;5064426;28;19970;-82
2022/07/20 12:05:29;;;;;;;;;;;32.00;71.60;;;;;;5065090;28;19943;-81
2022/07/20 12:08:10;;;;;;;;;;;32.00;71.40;;;;;;5065526;28;19928;-81
2022/07/20 12:10:35;;;;;;;;;;;31.90;71.60;;;;;;5063012;28;20791;-81
2022/07/20 12:13:02;;;;;;;;;;;32.30;72.00;;;;;;5043277;28;19934;-82
2022/07/20 12:15:28;;;;;;;;;;;32.30;71.10;;;;;;5061219;28;20400;-81
2022/07/20 12:17:54;;;;;;;;;;;32.00;69.40;;;;;;5044112;28;19928;-82
2022/07/20 12:20:20;;;;;;;;;;;32.10;70.30;;;;;;5058369;28;20618;-82
2022/07/20 12:22:50;;;;;;;;;;;32.30;71.30;;;;;;5058003;28;20172;-81
2022/07/20 12:25:16;;;;;;;;;;;32.30;71.00;;;;;;5059538;28;19993;-84
2022/07/20 12:27:42;;;;;;;;;;;32.40;71.50;;;;;;5041179;28;19932;-84
2022/07/20 12:30:23;;;;;;;;;;;32.60;71.50;;;;;;5060710;28;19928;-82
2022/07/20 12:33:08;;;;;;;;;;;32.70;70.90;;;;;;5060944;28;20362;-80
2022/07/20 12:35:35;;;;;;;;;;;32.70;70.80;;;;;;5044586;28;19972;-82
2022/07/20 12:38:00;;;;;;;;;;;32.70;68.20;;;;;;5047146;28;19932;-83
2022/07/20 12:40:52;;;;;;;;;;;32.60;68.90;;;;;;5064164;28;19939;-82
2022/07/20 12:43:27;;;;;;;;;;;32.80;73.00;;;;;;5033638;28;20053;-82
2022/07/20 12:45:54;;;;;;;;;;;32.80;71.10;;;;;;5063200;28;20026;-81
2022/07/20 12:48:19;;;;;;;;;;;32.70;70.40;;;;;;5063141;28;20039;-82
2022/07/20 12:50:45;;;;;;;;;;;33.10;73.50;;;;;;5064344;28;19938;-81
2022/07/20 12:53:11;;;;;;;;;;;33.30;71.10;;;;;;5065232;28;19928;-82
2022/07/20 12:55:36;;;;;;;;;;;33.30;71.80;;;;;;5048869;28;19978;-82
2022/07/20 12:58:02;;;;;;;;;;;33.20;70.30;;;;;;5065927;28;20016;-83
2022/07/20 13:00:28;;;;;;;;;;;33.30;69.60;;;;;;5066810;28;20419;-83
2022/07/20 13:02:53;;;;;;;;;;;33.30;71.50;;;;;;5066534;28;20310;-80
2022/07/20 13:05:19;;;;;;;;;;;33.30;71.70;;;;;;5066036;28;19928;-82
2022/07/20 13:07:46;;;;;;;;;;;33.40;70.50;;;;;;5048344;28;19928;-80
2022/07/20 13:10:13;;;;;;;;;;;33.50;70.70;;;;;;5063670;28;19928;-84
2022/07/20 13:12:39;;;;;;;;;;;33.70;71.10;;;;;;5063352;28;19928;-82
2022/07/20 13:15:06;;;;;;;;;;;33.70;71.30;;;;;;5066257;28;20628;-85
2022/07/20 13:17:32;;;;;;;;;;;33.70;71.00;;;;;;5065639;28;19928;-80
2022/07/20 13:19:58;;;;;;;;;;;33.70;70.50;;;;;;5068563;28;19928;-86
2022/07/20 13:22:24;;;;;;;;;;;33.60;73.10;;;;;;5065535;28;19935;-83
2022/07/20 13:24:49;;;;;;;;;;;34.00;72.30;;;;;;5065549;28;20400;-82
2022/07/20 13:27:15;;;;;;;;;;;33.90;71.50;;;;;;5062889;28;19985;-83
2022/07/20 13:29:41;;;;;;;;;;;33.90;73.90;;;;;;5065814;28;19924;-83
2022/07/20 13:32:06;;;;;;;;;;;33.70;69.60;;;;;;5065636;28;19974;-83
2022/07/20 13:34:32;;;;;;;;;;;34.00;73.10;;;;;;5065456;28;19928;-82
2022/07/20 13:36:58;;;;;;;;;;;33.50;72.40;;;;;;5066396;28;19939;-82
2022/07/20 13:39:23;;;;;;;;;;;33.80;72.60;;;;;;5063587;28;20525;-82
2022/07/20 13:41:49;;;;;;;;;;;34.20;72.90;;;;;;5066429;28;19932;-82
2022/07/20 13:44:15;;;;;;;;;;;34.00;71.80;;;;;;5064508;28;19928;-81
2022/07/20 13:46:41;;;;;;;;;;;34.10;72.30;;;;;;5063540;28;19924;-82
2022/07/20 13:49:07;;;;;;;;;;;34.10;72.30;;;;;;5064168;28;19997;-83
2022/07/20 13:51:32;;;;;;;;;;;34.20;71.90;;;;;;5065433;28;20484;-82
2022/07/20 13:53:58;;;;;;;;;;;34.30;71.70;;;;;;5062470;28;19928;-83
2022/07/20 13:56:26;;;;;;;;;;;34.20;71.00;;;;;;5037880;28;19934;-82
2022/07/20 13:58:51;;;;;;;;;;;34.20;72.40;;;;;;5041318;28;20352;-82
2022/07/20 14:01:17;;;;;;;;;;;34.20;70.60;;;;;;5063088;28;19928;-81
2022/07/20 14:03:43;;;;;;;;;;;33.90;70.50;;;;;;5032517;28;19980;-81
2022/07/20 14:06:08;;;;;;;;;;;34.00;71.20;;;;;;5035599;28;19972;-82
2022/07/20 14:08:34;;;;;;;;;;;33.80;73.70;;;;;;5032712;28;20040;-80
2022/07/20 14:11:00;;;;;;;;;;;34.20;72.80;;;;;;5044253;28;19964;-81
2022/07/20 14:13:26;;;;;;;;;;;34.20;72.20;;;;;;5040147;28;20657;-83
2022/07/20 14:15:51;;;;;;;;;;;33.40;72.00;;;;;;5047348;28;19928;-82